sensor_id;sensor_type;location;lat;lon;timestamp;pressure;altitude;pressure_sealevel;temperature;humidity
64628;BME280;68467;50.960;0.314;2024-02-14T00:01:21;99537.47;;;11.98;100.00
64628;BME280;68467;50.960;0.314;2024-02-14T00:03:48;99543.72;;;12.75;100.00
64628;BME280;68467;50.960;0.314;2024-02-14T00:06:16;99545.17;;;12.69;100.00
64628;BME280;68467;50.960;0.314;2024-02-14T00:08:44;99547.98;;;12.38;100.00
64628;BME280;68467;50.960;0.314;2024-02-14T00:11:11;99545.62;;;12.16;100.00
64628;BME280;68467;50.960;0.314;2024-02-14T00:13:38;99545.51;;;12.29;100.00
64628;BME280;68467;50.960;0.314;2024-02-14T00:16:06;99549.18;;;12.06;100.00
64628;BME280;68467;50.960;0.314;2024-02-14T00:18:33;99554.36;;;12.13;100.00
64628;BME280;68467;50.960;0.314;2024-02-14T00:21:01;99549.36;;;12.70;100.00
64628;BME280;68467;50.960;0.314;2024-02-14T00:23:28;99551.28;;;12.52;100.00
64628;BME280;68467;50.960;0.314;2024-02-14T00:25:56;99550.39;;;12.58;100.00
64628;BME280;68467;50.960;0.314;2024-02-14T00:28:23;99552.25;;;12.02;100.00
64628;BME280;68467;50.960;0.314;2024-02-14T00:30:50;99565.18;;;11.65;100.00
64628;BME280;68467;50.960;0.314;2024-02-14T00:33:17;99565.94;;;11.58;100.00
64628;BME280;68467;50.960;0.314;2024-02-14T00:35:44;99561.88;;;11.67;100.00
64628;BME280;68467;50.960;0.314;2024-02-14T00:38:12;99556.77;;;11.86;100.00
64628;BME280;68467;50.960;0.314;2024-02-14T00:40:39;99554.91;;;11.51;100.00
64628;BME280;68467;50.960;0.314;2024-02-14T00:43:06;99569.32;;;11.95;100.00
64628;BME280;68467;50.960;0.314;2024-02-14T00:45:34;99578.04;;;11.48;100.00
64628;BME280;68467;50.960;0.314;2024-02-14T00:48:01;99560.77;;;11.69;100.00
64628;BME280;68467;50.960;0.314;2024-02-14T00:50:29;99558.92;;;11.82;100.00
64628;BME280;68467;50.960;0.314;2024-02-14T00:52:56;99554.63;;;12.00;100.00
64628;BME280;68467;50.960;0.314;2024-02-14T00:55:24;99553.36;;;12.07;100.00
64628;BME280;68467;50.960;0.314;2024-02-14T00:57:51;99555.19;;;12.25;100.00
64628;BME280;68467;50.960;0.314;2024-02-14T01:00:18;99552.83;;;12.08;100.00
64628;BME280;68467;50.960;0.314;2024-02-14T01:02:45;99552.57;;;12.54;100.00
64628;BME280;68467;50.960;0.314;2024-02-14T01:05:12;99550.99;;;12.47;100.00
64628;BME280;68467;50.960;0.314;2024-02-14T01:07:39;99558.18;;;11.75;100.00
64628;BME280;68467;50.960;0.314;2024-02-14T01:10:07;99557.00;;;12.03;100.00
64628;BME280;68467;50.960;0.314;2024-02-14T01:12:35;99553.78;;;11.88;100.00
64628;BME280;68467;50.960;0.314;2024-02-14T01:15:03;99552.25;;;11.96;100.00
64628;BME280;68467;50.960;0.314;2024-02-14T01:17:31;99555.64;;;12.21;100.00
64628;BME280;68467;50.960;0.314;2024-02-14T01:19:58;99554.38;;;12.02;100.00
64628;BME280;68467;50.960;0.314;2024-02-14T01:22:25;99556.06;;;11.89;100.00
64628;BME280;68467;50.960;0.314;2024-02-14T01:24:51;99562.04;;;11.76;100.00
64628;BME280;68467;50.960;0.314;2024-02-14T01:27:19;99563.74;;;11.41;100.00
64628;BME280;68467;50.960;0.314;2024-02-14T01:29:46;99567.37;;;12.09;100.00
64628;BME280;68467;50.960;0.314;2024-02-14T01:32:13;99560.99;;;12.54;100.00
64628;BME280;68467;50.960;0.314;2024-02-14T01:34:40;99571.34;;;11.88;100.00
64628;BME280;68467;50.960;0.314;2024-02-14T01:37:08;99565.66;;;12.47;100.00
64628;BME280;68467;50.960;0.314;2024-02-14T01:39:35;99575.04;;;12.21;100.00
64628;BME280;68467;50.960;0.314;2024-02-14T01:42:03;99570.26;;;12.26;100.00
64628;BME280;68467;50.960;0.314;2024-02-14T01:44:31;99569.84;;;12.20;100.00
64628;BME280;68467;50.960;0.314;2024-02-14T01:46:58;99577.38;;;12.23;100.00
64628;BME280;68467;50.960;0.314;2024-02-14T01:49:26;99573.01;;;11.78;100.00
64628;BME280;68467;50.960;0.314;2024-02-14T01:51:56;99585.21;;;11.98;100.00
64628;BME280;68467;50.960;0.314;2024-02-14T01:54:25;99585.37;;;11.47;100.00
64628;BME280;68467;50.960;0.314;2024-02-14T01:56:53;99580.06;;;11.97;100.00
64628;BME280;68467;50.960;0.314;2024-02-14T01:59:22;99588.26;;;12.29;100.00
64628;BME280;68467;50.960;0.314;2024-02-14T02:01:50;99581.49;;;11.86;100.00
64628;BME280;68467;50.960;0.314;2024-02-14T02:04:17;99570.21;;;12.38;100.00
64628;BME280;68467;50.960;0.314;2024-02-14T02:06:44;99576.01;;;11.85;100.00
64628;BME280;68467;50.960;0.314;2024-02-14T02:09:11;99580.57;;;11.62;100.00
64628;BME280;68467;50.960;0.314;2024-02-14T02:11:46;99591.64;;;11.82;100.00
64628;BME280;68467;50.960;0.314;2024-02-14T02:14:13;99592.26;;;12.05;100.00
64628;BME280;68467;50.960;0.314;2024-02-14T02:16:40;99594.47;;;11.57;100.00
64628;BME280;68467;50.960;0.314;2024-02-14T02:19:07;99592.91;;;11.64;100.00
64628;BME280;68467;50.960;0.314;2024-02-14T02:21:34;99592.51;;;11.80;100.00
64628;BME280;68467;50.960;0.314;2024-02-14T02:24:02;99594.53;;;12.20;100.00
64628;BME280;68467;50.960;0.314;2024-02-14T02:26:29;99590.94;;;11.68;100.00
64628;BME280;68467;50.960;0.314;2024-02-14T02:28:57;99585.88;;;11.83;100.00
64628;BME280;68467;50.960;0.314;2024-02-14T02:31:24;99585.68;;;11.78;100.00
64628;BME280;68467;50.960;0.314;2024-02-14T02:33:51;99575.63;;;11.82;100.00
64628;BME280;68467;50.960;0.314;2024-02-14T02:36:18;99582.08;;;11.80;100.00
64628;BME280;68467;50.960;0.314;2024-02-14T02:38:46;99569.10;;;11.67;100.00
64628;BME280;68467;50.960;0.314;2024-02-14T02:41:15;99581.51;;;11.11;100.00
64628;BME280;68467;50.960;0.314;2024-02-14T02:43:42;99588.82;;;12.07;100.00
64628;BME280;68467;50.960;0.314;2024-02-14T02:46:10;99591.63;;;11.53;100.00
64628;BME280;68467;50.960;0.314;2024-02-14T02:48:37;99591.84;;;11.63;100.00
64628;BME280;68467;50.960;0.314;2024-02-14T02:51:05;99583.30;;;12.03;100.00
64628;BME280;68467;50.960;0.314;2024-02-14T02:53:33;99580.14;;;12.31;100.00
64628;BME280;68467;50.960;0.314;2024-02-14T02:56:00;99595.30;;;11.82;100.00
64628;BME280;68467;50.960;0.314;2024-02-14T02:58:28;99592.44;;;11.54;100.00
64628;BME280;68467;50.960;0.314;2024-02-14T03:00:55;99583.84;;;11.91;100.00
64628;BME280;68467;50.960;0.314;2024-02-14T03:03:22;99584.73;;;11.38;100.00
64628;BME280;68467;50.960;0.314;2024-02-14T03:05:49;99583.70;;;11.95;100.00
64628;BME280;68467;50.960;0.314;2024-02-14T03:08:17;99576.91;;;12.38;100.00
64628;BME280;68467;50.960;0.314;2024-02-14T03:10:44;99584.58;;;11.75;100.00
64628;BME280;68467;50.960;0.314;2024-02-14T03:13:11;99585.26;;;11.39;100.00
64628;BME280;68467;50.960;0.314;2024-02-14T03:15:38;99578.00;;;11.89;100.00
64628;BME280;68467;50.960;0.314;2024-02-14T03:18:05;99580.18;;;11.90;100.00
64628;BME280;68467;50.960;0.314;2024-02-14T03:20:32;99585.00;;;11.79;100.00
64628;BME280;68467;50.960;0.314;2024-02-14T03:22:59;99585.18;;;12.12;100.00
64628;BME280;68467;50.960;0.314;2024-02-14T03:25:26;99582.31;;;12.00;100.00
64628;BME280;68467;50.960;0.314;2024-02-14T03:27:54;99569.46;;;12.33;100.00
64628;BME280;68467;50.960;0.314;2024-02-14T03:30:21;99568.28;;;12.55;100.00
64628;BME280;68467;50.960;0.314;2024-02-14T03:32:48;99568.28;;;12.05;100.00
64628;BME280;68467;50.960;0.314;2024-02-14T03:35:16;99572.22;;;12.33;100.00
64628;BME280;68467;50.960;0.314;2024-02-14T03:37:43;99575.99;;;13.00;100.00
64628;BME280;68467;50.960;0.314;2024-02-14T03:40:10;99580.11;;;12.03;100.00
64628;BME280;68467;50.960;0.314;2024-02-14T03:42:38;99577.79;;;11.80;100.00
64628;BME280;68467;50.960;0.314;2024-02-14T03:45:06;99575.01;;;12.78;100.00
64628;BME280;68467;50.960;0.314;2024-02-14T03:47:34;99582.61;;;12.15;100.00
64628;BME280;68467;50.960;0.314;2024-02-14T03:50:02;99582.48;;;12.54;100.00
64628;BME280;68467;50.960;0.314;2024-02-14T03:52:30;99580.75;;;12.96;100.00
64628;BME280;68467;50.960;0.314;2024-02-14T03:54:58;99578.57;;;12.57;100.00
64628;BME280;68467;50.960;0.314;2024-02-14T03:57:26;99572.15;;;12.47;100.00
64628;BME280;68467;50.960;0.314;2024-02-14T03:59:54;99568.39;;;12.33;100.00
64628;BME280;68467;50.960;0.314;2024-02-14T04:02:21;99576.80;;;12.39;100.00
64628;BME280;68467;50.960;0.314;2024-02-14T04:04:48;99570.06;;;12.58;100.00
64628;BME280;68467;50.960;0.314;2024-02-14T04:07:16;99580.92;;;12.66;100.00
64628;BME280;68467;50.960;0.314;2024-02-14T04:09:44;99580.63;;;12.06;100.00
64628;BME280;68467;50.960;0.314;2024-02-14T04:12:11;99585.19;;;12.48;100.00
64628;BME280;68467;50.960;0.314;2024-02-14T04:14:39;99578.63;;;12.11;100.00
64628;BME280;68467;50.960;0.314;2024-02-14T04:17:06;99579.76;;;11.53;100.00
64628;BME280;68467;50.960;0.314;2024-02-14T04:19:34;99582.84;;;11.84;100.00
64628;BME280;68467;50.960;0.314;2024-02-14T04:22:01;99577.87;;;12.41;100.00
64628;BME280;68467;50.960;0.314;2024-02-14T04:24:29;99588.93;;;12.51;100.00
64628;BME280;68467;50.960;0.314;2024-02-14T04:26:56;99593.21;;;12.87;100.00
64628;BME280;68467;50.960;0.314;2024-02-14T04:29:24;99585.17;;;11.58;100.00
64628;BME280;68467;50.960;0.314;2024-02-14T04:31:51;99586.53;;;12.15;100.00
64628;BME280;68467;50.960;0.314;2024-02-14T04:34:18;99580.15;;;12.22;100.00
64628;BME280;68467;50.960;0.314;2024-02-14T04:36:45;99584.43;;;12.88;100.00
64628;BME280;68467;50.960;0.314;2024-02-14T04:39:13;99588.33;;;11.94;100.00
64628;BME280;68467;50.960;0.314;2024-02-14T04:41:40;99581.95;;;11.92;100.00
64628;BME280;68467;50.960;0.314;2024-02-14T04:44:07;99583.52;;;12.49;100.00
64628;BME280;68467;50.960;0.314;2024-02-14T04:46:35;99582.54;;;11.98;100.00
64628;BME280;68467;50.960;0.314;2024-02-14T04:49:02;99583.51;;;12.66;100.00
64628;BME280;68467;50.960;0.314;2024-02-14T04:51:29;99576.51;;;12.89;100.00
64628;BME280;68467;50.960;0.314;2024-02-14T04:53:57;99586.99;;;12.34;100.00
64628;BME280;68467;50.960;0.314;2024-02-14T04:56:25;99592.19;;;12.09;100.00
64628;BME280;68467;50.960;0.314;2024-02-14T04:58:52;99587.19;;;11.92;100.00
64628;BME280;68467;50.960;0.314;2024-02-14T05:01:19;99596.44;;;11.76;100.00
64628;BME280;68467;50.960;0.314;2024-02-14T05:03:47;99593.31;;;12.01;100.00
64628;BME280;68467;50.960;0.314;2024-02-14T05:06:14;99588.03;;;11.69;100.00
64628;BME280;68467;50.960;0.314;2024-02-14T05:08:42;99593.77;;;12.37;100.00
64628;BME280;68467;50.960;0.314;2024-02-14T05:11:09;99589.94;;;12.25;100.00
64628;BME280;68467;50.960;0.314;2024-02-14T05:13:37;99587.96;;;12.43;100.00
64628;BME280;68467;50.960;0.314;2024-02-14T05:16:04;99585.59;;;12.73;100.00
64628;BME280;68467;50.960;0.314;2024-02-14T05:18:32;99585.41;;;12.65;100.00
64628;BME280;68467;50.960;0.314;2024-02-14T05:20:59;99589.64;;;12.06;100.00
64628;BME280;68467;50.960;0.314;2024-02-14T05:23:26;99594.37;;;12.80;100.00
64628;BME280;68467;50.960;0.314;2024-02-14T05:25:53;99590.22;;;12.04;100.00
64628;BME280;68467;50.960;0.314;2024-02-14T05:28:20;99586.17;;;12.26;100.00
64628;BME280;68467;50.960;0.314;2024-02-14T05:30:47;99588.54;;;12.71;100.00
64628;BME280;68467;50.960;0.314;2024-02-14T05:33:15;99588.76;;;12.67;100.00
64628;BME280;68467;50.960;0.314;2024-02-14T05:35:42;99588.10;;;12.84;100.00
64628;BME280;68467;50.960;0.314;2024-02-14T05:38:10;99585.52;;;12.41;100.00
64628;BME280;68467;50.960;0.314;2024-02-14T05:40:37;99584.57;;;12.56;100.00
64628;BME280;68467;50.960;0.314;2024-02-14T05:43:04;99588.06;;;12.26;100.00
64628;BME280;68467;50.960;0.314;2024-02-14T05:45:31;99589.10;;;12.65;100.00
64628;BME280;68467;50.960;0.314;2024-02-14T05:47:59;99590.93;;;12.83;100.00
64628;BME280;68467;50.960;0.314;2024-02-14T05:50:26;99596.18;;;13.25;100.00
64628;BME280;68467;50.960;0.314;2024-02-14T05:52:53;99596.19;;;13.15;100.00
64628;BME280;68467;50.960;0.314;2024-02-14T05:55:26;99594.60;;;12.68;100.00
64628;BME280;68467;50.960;0.314;2024-02-14T05:57:53;99580.08;;;12.39;100.00
64628;BME280;68467;50.960;0.314;2024-02-14T06:00:21;99582.72;;;12.01;100.00
64628;BME280;68467;50.960;0.314;2024-02-14T06:02:48;99587.61;;;12.51;100.00
64628;BME280;68467;50.960;0.314;2024-02-14T06:05:17;99593.34;;;12.26;100.00
64628;BME280;68467;50.960;0.314;2024-02-14T06:07:44;99588.12;;;11.97;100.00
64628;BME280;68467;50.960;0.314;2024-02-14T06:10:11;99590.02;;;12.26;100.00
64628;BME280;68467;50.960;0.314;2024-02-14T06:12:39;99586.52;;;12.45;100.00
64628;BME280;68467;50.960;0.314;2024-02-14T06:15:06;99585.76;;;12.15;100.00
64628;BME280;68467;50.960;0.314;2024-02-14T06:17:34;99590.08;;;12.34;100.00
64628;BME280;68467;50.960;0.314;2024-02-14T06:20:01;99592.78;;;12.27;100.00
64628;BME280;68467;50.960;0.314;2024-02-14T06:22:29;99594.94;;;11.79;100.00
64628;BME280;68467;50.960;0.314;2024-02-14T06:24:56;99590.69;;;12.01;100.00
64628;BME280;68467;50.960;0.314;2024-02-14T06:27:23;99596.03;;;11.99;100.00
64628;BME280;68467;50.960;0.314;2024-02-14T06:29:51;99594.84;;;11.66;100.00
64628;BME280;68467;50.960;0.314;2024-02-14T06:32:18;99590.05;;;11.72;100.00
64628;BME280;68467;50.960;0.314;2024-02-14T06:34:45;99595.76;;;11.96;100.00
64628;BME280;68467;50.960;0.314;2024-02-14T06:37:12;99594.92;;;11.90;100.00
64628;BME280;68467;50.960;0.314;2024-02-14T06:39:44;99598.54;;;12.24;100.00
64628;BME280;68467;50.960;0.314;2024-02-14T06:42:12;99609.09;;;11.87;100.00
64628;BME280;68467;50.960;0.314;2024-02-14T06:44:39;99613.09;;;11.66;100.00
64628;BME280;68467;50.960;0.314;2024-02-14T06:47:07;99615.92;;;12.17;100.00
64628;BME280;68467;50.960;0.314;2024-02-14T06:49:34;99608.80;;;12.17;100.00
64628;BME280;68467;50.960;0.314;2024-02-14T06:52:01;99612.69;;;11.99;100.00
64628;BME280;68467;50.960;0.314;2024-02-14T06:54:28;99608.07;;;12.32;100.00
64628;BME280;68467;50.960;0.314;2024-02-14T06:56:55;99616.00;;;12.69;100.00
64628;BME280;68467;50.960;0.314;2024-02-14T06:59:22;99612.89;;;12.62;100.00
64628;BME280;68467;50.960;0.314;2024-02-14T07:01:49;99615.96;;;12.41;100.00
64628;BME280;68467;50.960;0.314;2024-02-14T07:04:17;99622.96;;;12.30;100.00
64628;BME280;68467;50.960;0.314;2024-02-14T07:06:45;99628.95;;;12.05;100.00
64628;BME280;68467;50.960;0.314;2024-02-14T07:09:13;99626.04;;;12.16;100.00
64628;BME280;68467;50.960;0.314;2024-02-14T07:11:41;99629.27;;;12.28;100.00
64628;BME280;68467;50.960;0.314;2024-02-14T07:14:08;99625.57;;;12.62;100.00
64628;BME280;68467;50.960;0.314;2024-02-14T07:16:35;99621.84;;;11.94;100.00
64628;BME280;68467;50.960;0.314;2024-02-14T07:19:02;99624.88;;;12.18;100.00
64628;BME280;68467;50.960;0.314;2024-02-14T07:21:29;99629.83;;;12.75;100.00
64628;BME280;68467;50.960;0.314;2024-02-14T07:23:56;99642.66;;;12.58;100.00
64628;BME280;68467;50.960;0.314;2024-02-14T07:26:23;99644.61;;;12.31;100.00
64628;BME280;68467;50.960;0.314;2024-02-14T07:28:50;99654.43;;;12.06;100.00
64628;BME280;68467;50.960;0.314;2024-02-14T07:31:17;99651.07;;;12.07;100.00
64628;BME280;68467;50.960;0.314;2024-02-14T07:33:44;99643.93;;;11.74;100.00
64628;BME280;68467;50.960;0.314;2024-02-14T07:36:11;99650.99;;;12.62;100.00
64628;BME280;68467;50.960;0.314;2024-02-14T07:38:38;99641.73;;;12.50;100.00
64628;BME280;68467;50.960;0.314;2024-02-14T07:41:05;99642.49;;;12.49;100.00
64628;BME280;68467;50.960;0.314;2024-02-14T07:43:33;99644.67;;;12.36;100.00
64628;BME280;68467;50.960;0.314;2024-02-14T07:46:00;99645.04;;;12.03;100.00
64628;BME280;68467;50.960;0.314;2024-02-14T07:48:27;99639.53;;;12.75;100.00
64628;BME280;68467;50.960;0.314;2024-02-14T07:50:54;99648.19;;;12.21;100.00
64628;BME280;68467;50.960;0.314;2024-02-14T07:53:21;99647.23;;;12.18;100.00
64628;BME280;68467;50.960;0.314;2024-02-14T07:55:49;99654.97;;;12.80;100.00
64628;BME280;68467;50.960;0.314;2024-02-14T07:58:16;99636.67;;;12.79;100.00
64628;BME280;68467;50.960;0.314;2024-02-14T08:00:43;99661.06;;;12.11;100.00
64628;BME280;68467;50.960;0.314;2024-02-14T08:03:10;99658.92;;;12.07;100.00
64628;BME280;68467;50.960;0.314;2024-02-14T08:05:37;99658.01;;;12.44;100.00
64628;BME280;68467;50.960;0.314;2024-02-14T08:08:05;99678.76;;;12.32;100.00
64628;BME280;68467;50.960;0.314;2024-02-14T08:10:32;99668.42;;;12.15;100.00
64628;BME280;68467;50.960;0.314;2024-02-14T08:12:59;99660.78;;;12.56;100.00
64628;BME280;68467;50.960;0.314;2024-02-14T08:15:26;99670.80;;;12.21;100.00
64628;BME280;68467;50.960;0.314;2024-02-14T08:17:53;99672.79;;;12.50;100.00
64628;BME280;68467;50.960;0.314;2024-02-14T08:20:20;99664.31;;;12.26;100.00
64628;BME280;68467;50.960;0.314;2024-02-14T08:22:48;99666.60;;;12.97;100.00
64628;BME280;68467;50.960;0.314;2024-02-14T08:25:17;99668.44;;;12.34;100.00
64628;BME280;68467;50.960;0.314;2024-02-14T08:27:44;99672.19;;;11.86;100.00
64628;BME280;68467;50.960;0.314;2024-02-14T08:30:12;99659.77;;;12.04;100.00
64628;BME280;68467;50.960;0.314;2024-02-14T08:32:39;99666.12;;;11.98;100.00
64628;BME280;68467;50.960;0.314;2024-02-14T08:35:07;99677.89;;;11.51;100.00
64628;BME280;68467;50.960;0.314;2024-02-14T08:37:34;99684.36;;;11.61;100.00
64628;BME280;68467;50.960;0.314;2024-02-14T08:40:02;99674.06;;;11.62;100.00
64628;BME280;68467;50.960;0.314;2024-02-14T08:42:29;99687.84;;;11.92;100.00
64628;BME280;68467;50.960;0.314;2024-02-14T08:44:56;99690.62;;;11.87;100.00
64628;BME280;68467;50.960;0.314;2024-02-14T08:47:23;99683.65;;;12.09;100.00
64628;BME280;68467;50.960;0.314;2024-02-14T08:49:50;99688.34;;;12.00;100.00
64628;BME280;68467;50.960;0.314;2024-02-14T08:52:17;99685.84;;;12.03;100.00
64628;BME280;68467;50.960;0.314;2024-02-14T08:54:44;99683.92;;;12.20;100.00
64628;BME280;68467;50.960;0.314;2024-02-14T08:57:16;99677.29;;;12.34;100.00
64628;BME280;68467;50.960;0.314;2024-02-14T08:59:43;99683.00;;;11.98;100.00
64628;BME280;68467;50.960;0.314;2024-02-14T09:02:11;99680.58;;;11.86;100.00
64628;BME280;68467;50.960;0.314;2024-02-14T09:04:38;99680.40;;;12.01;100.00
64628;BME280;68467;50.960;0.314;2024-02-14T09:07:06;99683.62;;;12.13;100.00
64628;BME280;68467;50.960;0.314;2024-02-14T09:09:33;99680.31;;;12.27;100.00
64628;BME280;68467;50.960;0.314;2024-02-14T09:12:00;99688.15;;;11.68;100.00
64628;BME280;68467;50.960;0.314;2024-02-14T09:14:27;99674.23;;;12.08;100.00
64628;BME280;68467;50.960;0.314;2024-02-14T09:16:54;99678.00;;;12.15;100.00
64628;BME280;68467;50.960;0.314;2024-02-14T09:19:21;99674.16;;;11.92;100.00
64628;BME280;68467;50.960;0.314;2024-02-14T09:21:53;99678.46;;;11.86;100.00
64628;BME280;68467;50.960;0.314;2024-02-14T09:24:20;99688.67;;;12.22;100.00
64628;BME280;68467;50.960;0.314;2024-02-14T09:26:47;99691.02;;;12.21;100.00
64628;BME280;68467;50.960;0.314;2024-02-14T09:29:15;99693.81;;;12.13;100.00
64628;BME280;68467;50.960;0.314;2024-02-14T09:31:42;99693.46;;;12.02;100.00
64628;BME280;68467;50.960;0.314;2024-02-14T09:34:09;99692.37;;;12.37;100.00
64628;BME280;68467;50.960;0.314;2024-02-14T09:36:36;99694.93;;;12.07;100.00
64628;BME280;68467;50.960;0.314;2024-02-14T09:39:04;99695.80;;;12.12;100.00
64628;BME280;68467;50.960;0.314;2024-02-14T09:41:36;99697.93;;;12.37;100.00
64628;BME280;68467;50.960;0.314;2024-02-14T09:44:03;99708.93;;;12.27;100.00
64628;BME280;68467;50.960;0.314;2024-02-14T09:46:36;99700.75;;;11.85;100.00
64628;BME280;68467;50.960;0.314;2024-02-14T09:49:04;99701.96;;;12.32;100.00
64628;BME280;68467;50.960;0.314;2024-02-14T09:51:33;99697.03;;;12.17;100.00
64628;BME280;68467;50.960;0.314;2024-02-14T09:54:00;99697.36;;;12.84;100.00
64628;BME280;68467;50.960;0.314;2024-02-14T09:56:28;99705.59;;;13.32;100.00
64628;BME280;68467;50.960;0.314;2024-02-14T09:58:56;99722.84;;;12.80;100.00
64628;BME280;68467;50.960;0.314;2024-02-14T10:01:24;99698.20;;;12.78;100.00
64628;BME280;68467;50.960;0.314;2024-02-14T10:03:53;99693.72;;;12.21;100.00
64628;BME280;68467;50.960;0.314;2024-02-14T10:06:21;99698.69;;;12.47;100.00
64628;BME280;68467;50.960;0.314;2024-02-14T10:08:49;99692.58;;;12.96;100.00
64628;BME280;68467;50.960;0.314;2024-02-14T10:11:16;99699.34;;;12.37;100.00
64628;BME280;68467;50.960;0.314;2024-02-14T10:13:44;99693.83;;;12.50;100.00
64628;BME280;68467;50.960;0.314;2024-02-14T10:16:11;99701.22;;;11.97;100.00
64628;BME280;68467;50.960;0.314;2024-02-14T10:18:39;99708.20;;;12.01;100.00
64628;BME280;68467;50.960;0.314;2024-02-14T10:21:06;99710.72;;;12.05;100.00
64628;BME280;68467;50.960;0.314;2024-02-14T10:23:32;99711.33;;;12.24;100.00
64628;BME280;68467;50.960;0.314;2024-02-14T10:26:00;99714.41;;;12.46;100.00
64628;BME280;68467;50.960;0.314;2024-02-14T10:28:27;99722.51;;;12.27;100.00
64628;BME280;68467;50.960;0.314;2024-02-14T10:30:54;99727.61;;;12.07;100.00
64628;BME280;68467;50.960;0.314;2024-02-14T10:33:21;99725.02;;;12.31;100.00
64628;BME280;68467;50.960;0.314;2024-02-14T10:35:50;99723.42;;;12.19;100.00
64628;BME280;68467;50.960;0.314;2024-02-14T10:38:20;99728.71;;;12.03;100.00
64628;BME280;68467;50.960;0.314;2024-02-14T10:40:47;99747.70;;;12.05;100.00
64628;BME280;68467;50.960;0.314;2024-02-14T10:43:15;99742.35;;;11.74;100.00
64628;BME280;68467;50.960;0.314;2024-02-14T10:45:42;99742.29;;;12.18;100.00
64628;BME280;68467;50.960;0.314;2024-02-14T10:48:11;99757.65;;;12.23;100.00
64628;BME280;68467;50.960;0.314;2024-02-14T10:50:41;99763.23;;;12.16;100.00
64628;BME280;68467;50.960;0.314;2024-02-14T10:53:13;99762.58;;;11.81;100.00
64628;BME280;68467;50.960;0.314;2024-02-14T10:55:41;99768.14;;;12.12;100.00
64628;BME280;68467;50.960;0.314;2024-02-14T10:58:10;99755.07;;;12.64;100.00
64628;BME280;68467;50.960;0.314;2024-02-14T11:00:38;99749.49;;;12.64;100.00
64628;BME280;68467;50.960;0.314;2024-02-14T11:03:05;99768.09;;;11.97;100.00
64628;BME280;68467;50.960;0.314;2024-02-14T11:05:43;99759.45;;;13.04;100.00
64628;BME280;68467;50.960;0.314;2024-02-14T11:08:13;99765.36;;;13.42;100.00
64628;BME280;68467;50.960;0.314;2024-02-14T11:10:41;99765.79;;;13.11;100.00
64628;BME280;68467;50.960;0.314;2024-02-14T11:13:10;99767.35;;;12.53;100.00
64628;BME280;68467;50.960;0.314;2024-02-14T11:15:40;99775.05;;;12.19;100.00
64628;BME280;68467;50.960;0.314;2024-02-14T11:18:07;99777.08;;;12.38;100.00
64628;BME280;68467;50.960;0.314;2024-02-14T11:20:41;99780.43;;;11.98;100.00
64628;BME280;68467;50.960;0.314;2024-02-14T11:23:08;99783.20;;;12.76;100.00
64628;BME280;68467;50.960;0.314;2024-02-14T11:25:35;99784.44;;;12.12;100.00
64628;BME280;68467;50.960;0.314;2024-02-14T11:28:13;99788.98;;;12.53;100.00
64628;BME280;68467;50.960;0.314;2024-02-14T11:30:41;99780.11;;;12.07;100.00
64628;BME280;68467;50.960;0.314;2024-02-14T11:33:12;99785.99;;;12.04;100.00
64628;BME280;68467;50.960;0.314;2024-02-14T11:35:40;99783.97;;;12.72;100.00
64628;BME280;68467;50.960;0.314;2024-02-14T11:38:08;99786.85;;;12.35;100.00
64628;BME280;68467;50.960;0.314;2024-02-14T11:40:35;99768.61;;;12.64;100.00
64628;BME280;68467;50.960;0.314;2024-02-14T11:43:03;99780.24;;;12.38;100.00
64628;BME280;68467;50.960;0.314;2024-02-14T11:45:31;99778.12;;;12.81;100.00
64628;BME280;68467;50.960;0.314;2024-02-14T11:47:58;99780.87;;;12.49;100.00
64628;BME280;68467;50.960;0.314;2024-02-14T11:50:25;99778.61;;;12.82;100.00
64628;BME280;68467;50.960;0.314;2024-02-14T11:52:53;99774.41;;;12.87;100.00
64628;BME280;68467;50.960;0.314;2024-02-14T11:55:27;99780.67;;;12.92;100.00
64628;BME280;68467;50.960;0.314;2024-02-14T11:57:56;99779.72;;;12.64;100.00
64628;BME280;68467;50.960;0.314;2024-02-14T12:00:23;99779.16;;;12.34;100.00
64628;BME280;68467;50.960;0.314;2024-02-14T12:02:51;99778.67;;;12.75;100.00
64628;BME280;68467;50.960;0.314;2024-02-14T12:05:19;99777.50;;;13.02;100.00
64628;BME280;68467;50.960;0.314;2024-02-14T12:07:47;99775.45;;;12.66;100.00
64628;BME280;68467;50.960;0.314;2024-02-14T12:10:20;99776.15;;;13.15;100.00
64628;BME280;68467;50.960;0.314;2024-02-14T12:12:48;99771.34;;;12.97;100.00
64628;BME280;68467;50.960;0.314;2024-02-14T12:15:15;99781.41;;;12.87;100.00
64628;BME280;68467;50.960;0.314;2024-02-14T12:17:45;99780.91;;;12.74;100.00
64628;BME280;68467;50.960;0.314;2024-02-14T12:20:15;99777.41;;;13.02;100.00
64628;BME280;68467;50.960;0.314;2024-02-14T12:22:42;99783.03;;;12.84;100.00
64628;BME280;68467;50.960;0.314;2024-02-14T12:25:10;99775.86;;;13.23;100.00
64628;BME280;68467;50.960;0.314;2024-02-14T12:27:38;99773.70;;;13.29;100.00
64628;BME280;68467;50.960;0.314;2024-02-14T12:30:08;99780.01;;;12.88;100.00
64628;BME280;68467;50.960;0.314;2024-02-14T12:32:35;99773.38;;;13.12;100.00
64628;BME280;68467;50.960;0.314;2024-02-14T12:35:02;99780.17;;;13.09;100.00
64628;BME280;68467;50.960;0.314;2024-02-14T12:37:29;99777.87;;;12.69;100.00
64628;BME280;68467;50.960;0.314;2024-02-14T12:39:58;99774.72;;;13.24;100.00
64628;BME280;68467;50.960;0.314;2024-02-14T12:42:25;99781.40;;;12.36;100.00
64628;BME280;68467;50.960;0.314;2024-02-14T12:44:54;99783.69;;;12.70;100.00
64628;BME280;68467;50.960;0.314;2024-02-14T12:47:26;99779.15;;;13.20;100.00
64628;BME280;68467;50.960;0.314;2024-02-14T12:49:54;99781.36;;;12.61;100.00
64628;BME280;68467;50.960;0.314;2024-02-14T12:52:26;99774.98;;;13.00;100.00